Terminal Aerodrome Forecast
Issued by NWS

Home | Current Version | Previous Version | Text Only | Print | Product List | Glossary On
Versions: 1 2 3 4 5 6 7 8 9 10 11 12 13
000
FTUS44 KTSA 041122
TAFRVS
TAF
KRVS 041122Z 0412/0512 16008KT P6SM SCT250
     FM041600 17010KT P6SM SCT050 SCT250
     FM050300 15006KT P6SM FEW250=

USA.gov is the U.S. government's official web portal to all federal, state and local government web resources and services.